createdAt,value
2019-05-19T00:00:09.883Z,70.08
2019-05-19T00:02:40.801Z,70.23
2019-05-19T00:05:10.712Z,70.76
2019-05-19T00:07:40.211Z,71.20
2019-05-19T00:10:09.739Z,70.98
2019-05-19T00:12:39.188Z,72.35
2019-05-19T00:15:08.891Z,72.14
2019-05-19T00:17:38.351Z,72.33
2019-05-19T00:20:08.509Z,72.34
2019-05-19T00:22:37.955Z,72.67
2019-05-19T00:25:07.558Z,73.31
2019-05-19T00:27:37.007Z,72.89
2019-05-19T00:30:07.910Z,73.26
2019-05-19T00:32:37.369Z,73.47
2019-05-19T00:35:07.479Z,73.19
2019-05-19T00:37:36.931Z,73.42
2019-05-19T00:40:08.084Z,74.09
2019-05-19T00:42:37.600Z,74.31
2019-05-19T00:45:11.143Z,74.08
2019-05-19T00:47:40.667Z,74.05
2019-05-19T00:50:10.610Z,74.17
2019-05-19T00:52:40.143Z,73.83
2019-05-19T00:55:09.733Z,73.34
2019-05-19T00:57:39.534Z,73.31
2019-05-19T01:00:10.291Z,73.27
2019-05-19T01:02:39.733Z,73.09
2019-05-19T01:05:09.335Z,72.76
2019-05-19T01:07:38.946Z,73.85
2019-05-19T01:10:09.206Z,74.52
2019-05-19T01:12:38.671Z,74.20
2019-05-19T01:15:09.445Z,74.40
2019-05-19T01:17:38.923Z,73.96
2019-05-19T01:20:08.794Z,74.19
2019-05-19T01:22:38.324Z,74.09
2019-05-19T01:25:08.575Z,74.00
2019-05-19T01:27:38.028Z,73.74
2019-05-19T01:30:12.189Z,73.74
2019-05-19T01:32:41.632Z,74.29
2019-05-19T01:35:11.229Z,74.54
2019-05-19T01:37:40.679Z,74.57
2019-05-19T01:40:10.211Z,74.23
2019-05-19T01:42:39.687Z,74.02
2019-05-19T01:45:10.197Z,73.88
2019-05-19T01:47:39.882Z,74.32
2019-05-19T01:50:18.433Z,74.23
2019-05-19T01:52:41.628Z,74.26
2019-05-19T01:55:12.315Z,74.14
2019-05-19T01:57:41.776Z,74.58
2019-05-19T02:00:11.937Z,74.77
2019-05-19T02:02:41.383Z,75.83
2019-05-19T02:05:11.137Z,76.06
2019-05-19T02:07:41.175Z,75.96
2019-05-19T02:10:10.937Z,75.76
2019-05-19T02:12:40.470Z,75.20
2019-05-19T02:15:11.720Z,75.14
2019-05-19T02:17:41.174Z,73.79
2019-05-19T02:20:11.344Z,74.13
2019-05-19T02:22:40.785Z,73.84
2019-05-19T02:25:10.703Z,73.84
2019-05-19T02:27:40.221Z,74.26
2019-05-19T02:30:11.482Z,74.51
2019-05-19T02:32:40.946Z,75.03
2019-05-19T02:35:10.624Z,74.90
2019-05-19T02:37:40.085Z,75.19
2019-05-19T02:40:10.270Z,75.75
2019-05-19T02:42:41.965Z,75.67
2019-05-19T02:45:13.319Z,75.84
2019-05-19T02:47:44.433Z,75.50
2019-05-19T02:50:14.209Z,75.28
2019-05-19T02:52:47.056Z,75.33
2019-05-19T02:55:16.953Z,75.19
2019-05-19T02:57:48.718Z,75.58
2019-05-19T03:00:21.423Z,75.26
2019-05-19T03:02:50.875Z,75.33
2019-05-19T03:05:20.390Z,75.58
2019-05-19T03:07:49.838Z,76.97
2019-05-19T03:10:19.369Z,77.75
2019-05-19T03:12:48.824Z,77.39
2019-05-19T03:15:18.268Z,78.21
2019-05-19T03:17:47.728Z,77.82
2019-05-19T03:20:17.178Z,78.08
2019-05-19T03:22:46.640Z,78.25
2019-05-19T03:25:16.160Z,77.88
2019-05-19T03:27:45.646Z,78.16
2019-05-19T03:30:31.187Z,78.31
2019-05-19T03:33:05.025Z,78.54
2019-05-19T03:35:34.546Z,79.54
2019-05-19T03:38:04.124Z,79.04
2019-05-19T03:40:33.586Z,78.58
2019-05-19T03:43:03.038Z,78.06
2019-05-19T03:45:32.563Z,78.47
2019-05-19T03:48:02.012Z,78.62
2019-05-19T03:50:31.464Z,78.60
2019-05-19T03:53:00.951Z,78.19
2019-05-19T03:55:30.413Z,77.97
2019-05-19T03:57:59.864Z,77.79
2019-05-19T04:00:29.307Z,77.45
2019-05-19T04:02:58.763Z,76.88
2019-05-19T04:05:28.224Z,76.25
2019-05-19T04:07:57.672Z,75.73
2019-05-19T04:10:27.122Z,75.08
2019-05-19T04:12:56.581Z,74.43
2019-05-19T04:15:26.030Z,74.15
2019-05-19T04:17:55.475Z,74.49
2019-05-19T04:20:24.978Z,74.15
2019-05-19T04:22:54.390Z,74.21
2019-05-19T04:25:23.859Z,74.60
2019-05-19T04:27:53.314Z,74.41
2019-05-19T04:30:22.994Z,74.69
2019-05-19T04:32:52.443Z,74.80
2019-05-19T04:35:21.889Z,74.73
2019-05-19T04:37:51.351Z,74.73
2019-05-19T04:40:20.817Z,74.15
2019-05-19T04:42:50.265Z,74.14
2019-05-19T04:45:19.786Z,74.31
2019-05-19T04:47:49.250Z,74.37
2019-05-19T04:50:20.277Z,74.13
2019-05-19T04:52:49.731Z,73.87
2019-05-19T04:55:19.190Z,73.67
2019-05-19T04:57:48.634Z,73.45
2019-05-19T05:00:18.220Z,73.01
2019-05-19T05:02:47.682Z,72.96
2019-05-19T05:05:17.123Z,72.30
2019-05-19T05:07:46.741Z,71.62
2019-05-19T05:10:16.471Z,71.27
2019-05-19T05:12:45.954Z,70.75
2019-05-19T05:15:16.207Z,70.26
2019-05-19T05:17:45.654Z,69.72
2019-05-19T05:20:15.255Z,69.50
2019-05-19T05:22:44.719Z,70.37
2019-05-19T05:25:14.371Z,70.08
2019-05-19T05:27:43.822Z,69.82
2019-05-19T05:30:13.450Z,69.80
2019-05-19T05:32:42.878Z,69.82
2019-05-19T05:35:12.458Z,69.90
2019-05-19T05:37:41.924Z,69.43
2019-05-19T05:40:12.014Z,68.98
2019-05-19T05:42:41.467Z,69.08
2019-05-19T05:45:11.327Z,68.68
2019-05-19T05:47:40.773Z,68.08
2019-05-19T05:50:10.378Z,67.37
2019-05-19T05:52:39.824Z,66.91
2019-05-19T05:55:09.794Z,66.51
2019-05-19T05:57:39.247Z,65.82
2019-05-19T06:00:10.070Z,66.13
2019-05-19T06:02:39.525Z,65.65
2019-05-19T06:05:09.518Z,65.32
2019-05-19T06:07:38.982Z,65.08
2019-05-19T06:10:09.145Z,65.11
2019-05-19T06:12:38.590Z,64.99
2019-05-19T06:15:08.488Z,64.30
2019-05-19T06:17:37.939Z,64.06
2019-05-19T06:20:08.859Z,63.97
2019-05-19T06:22:54.754Z,63.52
2019-05-19T06:25:10.032Z,63.23
2019-05-19T06:27:39.482Z,62.84
2019-05-19T06:30:09.378Z,62.15
2019-05-19T06:32:46.505Z,62.07
2019-05-19T06:35:16.083Z,61.85
2019-05-19T06:37:45.545Z,61.74
2019-05-19T06:40:15.398Z,61.42
2019-05-19T06:42:45.031Z,61.11
2019-05-19T06:45:15.012Z,60.12
2019-05-19T06:47:44.465Z,60.30
2019-05-19T06:50:14.831Z,60.96
2019-05-19T06:52:44.276Z,61.64
2019-05-19T06:55:13.820Z,60.97
2019-05-19T06:57:43.368Z,61.43
2019-05-19T07:00:14.750Z,60.65
2019-05-19T07:02:44.214Z,60.03
2019-05-19T07:05:13.798Z,59.50
2019-05-19T07:07:43.496Z,58.73
2019-05-19T07:10:13.390Z,58.48
2019-05-19T07:12:42.836Z,57.58
2019-05-19T07:15:12.810Z,57.31
2019-05-19T07:17:42.256Z,58.08
2019-05-19T07:20:11.793Z,57.37
2019-05-19T07:22:41.252Z,57.85
2019-05-19T07:25:10.927Z,58.55
2019-05-19T07:27:40.398Z,58.58
2019-05-19T07:30:10.981Z,58.13
2019-05-19T07:32:40.432Z,58.26
2019-05-19T07:35:11.109Z,57.37
2019-05-19T07:37:40.552Z,57.59
2019-05-19T07:40:10.664Z,56.55
2019-05-19T07:42:40.122Z,57.53
2019-05-19T07:45:10.483Z,57.74
2019-05-19T07:47:39.949Z,57.79
2019-05-19T07:50:09.470Z,57.45
2019-05-19T07:52:38.939Z,57.54
2019-05-19T07:55:08.594Z,57.02
2019-05-19T07:57:38.054Z,55.52
2019-05-19T08:00:09.420Z,55.21
2019-05-19T08:02:39.047Z,54.69
2019-05-19T08:05:08.594Z,54.70
2019-05-19T08:07:38.172Z,54.98
2019-05-19T08:10:08.507Z,53.85
2019-05-19T08:12:37.967Z,53.65
2019-05-19T08:15:10.462Z,55.75
2019-05-19T08:17:39.962Z,54.61
2019-05-19T08:20:09.691Z,54.37
2019-05-19T08:22:39.130Z,54.64
2019-05-19T08:25:09.006Z,53.25
2019-05-19T08:27:38.452Z,53.29
2019-05-19T08:30:08.713Z,51.50
2019-05-19T08:32:38.176Z,52.27
2019-05-19T08:35:08.247Z,50.84
2019-05-19T08:37:37.711Z,49.18
2019-05-19T08:40:07.236Z,48.94
2019-05-19T08:42:36.693Z,48.57
2019-05-19T08:45:08.126Z,46.28
2019-05-19T08:47:37.596Z,45.96
2019-05-19T08:50:08.451Z,46.75
2019-05-19T08:52:37.915Z,47.10
2019-05-19T08:55:08.174Z,46.08
2019-05-19T08:57:37.647Z,45.54
2019-05-19T09:00:07.791Z,46.20
2019-05-19T09:02:37.235Z,45.32
2019-05-19T09:05:07.936Z,46.91
2019-05-19T09:07:37.406Z,45.47
2019-05-19T09:10:08.955Z,45.93
2019-05-19T09:12:38.764Z,45.35
2019-05-19T09:15:08.495Z,45.42
2019-05-19T09:17:37.939Z,44.02
2019-05-19T09:20:07.739Z,45.26
2019-05-19T09:22:37.192Z,44.60
2019-05-19T09:25:09.959Z,45.63
2019-05-19T09:27:39.499Z,45.16
2019-05-19T09:30:12.016Z,45.17
2019-05-19T09:32:41.460Z,44.40
2019-05-19T09:35:11.333Z,44.62
2019-05-19T09:37:43.082Z,44.62
2019-05-19T09:40:12.947Z,43.96
2019-05-19T09:42:42.478Z,43.23
2019-05-19T09:45:11.995Z,42.17
2019-05-19T09:47:42.009Z,41.93
2019-05-19T09:50:13.542Z,42.69
2019-05-19T09:52:43.058Z,42.72
2019-05-19T09:55:13.123Z,42.35
2019-05-19T09:57:42.660Z,42.38
2019-05-19T10:00:13.973Z,42.00
2019-05-19T10:02:43.441Z,41.71
2019-05-19T10:05:13.127Z,41.19
2019-05-19T10:07:42.567Z,41.14
2019-05-19T10:10:16.141Z,40.37
2019-05-19T10:12:45.585Z,40.54
2019-05-19T10:15:15.384Z,41.96
2019-05-19T10:17:44.848Z,38.90
2019-05-19T10:20:15.199Z,38.50
2019-05-19T10:22:44.659Z,38.58
2019-05-19T10:25:22.926Z,37.69
2019-05-19T10:27:45.511Z,38.48
2019-05-19T10:30:16.785Z,38.79
2019-05-19T10:32:46.308Z,39.68
2019-05-19T10:35:16.035Z,39.56
2019-05-19T10:37:45.478Z,41.46
2019-05-19T10:40:15.160Z,39.31
2019-05-19T10:42:44.867Z,40.11
2019-05-19T10:45:14.349Z,39.07
2019-05-19T10:47:43.789Z,39.68
2019-05-19T10:50:13.378Z,40.33
2019-05-19T10:52:42.845Z,40.29
2019-05-19T10:55:12.648Z,40.84
2019-05-19T10:57:42.167Z,41.19
2019-05-19T11:00:12.236Z,39.67
2019-05-19T11:02:41.699Z,41.33
2019-05-19T11:05:11.603Z,39.05
2019-05-19T11:07:41.067Z,38.13
2019-05-19T11:10:11.387Z,38.09
2019-05-19T11:12:40.856Z,38.51
2019-05-19T11:15:10.510Z,36.87
2019-05-19T11:17:39.959Z,37.08
2019-05-19T11:20:09.492Z,37.63
2019-05-19T11:22:38.937Z,38.50
2019-05-19T11:25:08.516Z,36.51
2019-05-19T11:27:37.983Z,36.95
2019-05-19T11:30:08.472Z,37.05
2019-05-19T11:32:37.903Z,37.37
2019-05-19T11:35:08.176Z,36.63
2019-05-19T11:37:37.624Z,37.29
2019-05-19T11:40:07.155Z,37.33
2019-05-19T11:42:36.860Z,37.77
2019-05-19T11:45:07.849Z,37.11
2019-05-19T11:47:37.314Z,37.49
2019-05-19T11:50:07.824Z,38.50
2019-05-19T11:52:37.313Z,37.87
2019-05-19T11:55:07.184Z,37.88
2019-05-19T11:57:36.627Z,37.19
2019-05-19T12:00:09.593Z,36.29
2019-05-19T12:02:39.037Z,36.17
2019-05-19T12:05:08.793Z,36.24
2019-05-19T12:07:38.191Z,36.16
2019-05-19T12:10:07.979Z,35.76
2019-05-19T12:12:37.477Z,36.33
2019-05-19T12:15:08.988Z,36.66
2019-05-19T12:17:38.448Z,34.93
2019-05-19T12:20:08.141Z,36.21
2019-05-19T12:22:37.619Z,35.76
2019-05-19T12:25:07.491Z,36.06
2019-05-19T12:27:36.988Z,35.28
2019-05-19T12:30:10.728Z,34.40
2019-05-19T12:32:40.191Z,34.41
2019-05-19T12:35:09.781Z,34.11
2019-05-19T12:37:39.226Z,34.31
2019-05-19T12:40:08.923Z,35.72
2019-05-19T12:42:38.376Z,33.76
2019-05-19T12:45:11.982Z,34.56
2019-05-19T12:47:41.471Z,34.98
2019-05-19T12:50:11.720Z,35.68
2019-05-19T12:52:41.195Z,36.83
2019-05-19T12:55:11.177Z,35.45
2019-05-19T12:57:40.690Z,33.79
2019-05-19T13:00:10.662Z,32.29
2019-05-19T13:02:40.137Z,35.86
2019-05-19T13:05:09.909Z,35.84
2019-05-19T13:07:39.356Z,34.23
2019-05-19T13:10:09.238Z,34.13
2019-05-19T13:12:38.714Z,33.91
2019-05-19T13:15:09.066Z,33.82
2019-05-19T13:17:38.557Z,34.38
2019-05-19T13:20:08.267Z,33.75
2019-05-19T13:22:37.772Z,33.08
2019-05-19T13:25:07.468Z,32.60
2019-05-19T13:27:36.927Z,34.38
2019-05-19T13:30:08.023Z,32.82
2019-05-19T13:32:37.452Z,33.02
2019-05-19T13:35:08.473Z,33.46
2019-05-19T13:37:37.935Z,34.52
2019-05-19T13:40:07.634Z,34.75
2019-05-19T13:42:37.079Z,34.19
2019-05-19T13:45:07.991Z,36.00
2019-05-19T13:47:37.495Z,38.95
2019-05-19T13:50:08.799Z,37.79
2019-05-19T13:52:38.391Z,36.69
2019-05-19T13:55:09.378Z,37.18
2019-05-19T13:57:38.862Z,41.47
2019-05-19T14:00:08.893Z,42.79
2019-05-19T14:02:38.459Z,40.25
2019-05-19T14:05:08.193Z,39.81
2019-05-19T14:07:37.639Z,39.50
2019-05-19T14:10:08.681Z,40.95
2019-05-19T14:12:38.093Z,37.89
2019-05-19T14:15:08.694Z,38.22
2019-05-19T14:17:38.308Z,38.06
2019-05-19T14:20:10.944Z,37.83
2019-05-19T14:22:40.406Z,37.96
2019-05-19T14:25:10.253Z,36.64
2019-05-19T14:27:39.701Z,36.83
2019-05-19T14:30:10.242Z,38.63
2019-05-19T14:32:39.753Z,40.26
2019-05-19T14:35:09.425Z,39.12
2019-05-19T14:37:38.915Z,35.70
2019-05-19T14:40:09.252Z,34.23
2019-05-19T14:42:56.185Z,35.09
2019-05-19T14:45:25.760Z,36.44
2019-05-19T14:47:55.218Z,34.40
2019-05-19T14:50:24.698Z,35.24
2019-05-19T14:52:54.157Z,36.68
2019-05-19T14:55:23.688Z,38.68
2019-05-19T14:57:53.137Z,39.32
2019-05-19T15:00:23.640Z,39.62
2019-05-19T15:02:53.098Z,39.44
2019-05-19T15:05:22.560Z,38.38
2019-05-19T15:07:52.019Z,38.71
2019-05-19T15:10:21.604Z,38.52
2019-05-19T15:12:51.045Z,37.37
2019-05-19T15:15:20.796Z,35.24
2019-05-19T15:17:50.232Z,36.26
2019-05-19T15:20:20.031Z,36.02
2019-05-19T15:22:49.503Z,35.91
2019-05-19T15:25:18.964Z,37.09
2019-05-19T15:27:59.724Z,37.43
2019-05-19T15:30:19.672Z,37.94
2019-05-19T15:32:49.309Z,39.10
2019-05-19T15:35:19.002Z,39.67
2019-05-19T15:37:48.447Z,39.09
2019-05-19T15:40:18.280Z,40.66
2019-05-19T15:42:47.813Z,40.45
2019-05-19T15:45:18.196Z,40.96
2019-05-19T15:47:47.897Z,41.44
2019-05-19T15:50:19.044Z,41.73
2019-05-19T15:52:48.507Z,40.52
2019-05-19T15:55:18.040Z,39.86
2019-05-19T15:57:47.558Z,39.82
2019-05-19T16:00:17.353Z,38.98
2019-05-19T16:02:46.812Z,39.24
2019-05-19T16:05:16.352Z,38.40
2019-05-19T16:07:45.805Z,39.57
2019-05-19T16:10:16.576Z,39.46
2019-05-19T16:12:46.098Z,39.37
2019-05-19T16:15:15.847Z,40.39
2019-05-19T16:17:45.309Z,40.13
2019-05-19T16:20:15.196Z,40.50
2019-05-19T16:22:44.924Z,40.30
2019-05-19T16:25:14.519Z,40.03
2019-05-19T16:27:43.980Z,40.77
2019-05-19T16:30:13.712Z,41.52
2019-05-19T16:32:43.230Z,42.56
2019-05-19T16:35:12.904Z,42.27
2019-05-19T16:37:42.378Z,42.47
2019-05-19T16:40:12.103Z,44.36
2019-05-19T16:42:41.570Z,46.14
2019-05-19T16:45:12.843Z,50.65
2019-05-19T16:47:42.300Z,52.17
2019-05-19T16:50:11.983Z,55.60
2019-05-19T16:52:41.496Z,56.59
2019-05-19T16:55:21.801Z,59.09
2019-05-19T16:57:51.290Z,60.70
2019-05-19T17:00:21.147Z,62.08
2019-05-19T17:02:50.593Z,64.84
2019-05-19T17:05:20.311Z,62.96
2019-05-19T17:07:49.746Z,63.69
2019-05-19T17:10:19.543Z,63.27
2019-05-19T17:12:49.011Z,64.41
2019-05-19T17:15:18.878Z,63.72
2019-05-19T17:17:48.723Z,64.58
2019-05-19T17:20:19.495Z,65.16
2019-05-19T17:22:49.322Z,67.15
2019-05-19T17:25:18.861Z,64.53
2019-05-19T17:27:48.313Z,66.28
2019-05-19T17:30:18.908Z,66.78
2019-05-19T17:32:48.362Z,66.50
2019-05-19T17:35:18.146Z,66.33
2019-05-19T17:37:47.594Z,66.48
2019-05-19T17:40:17.290Z,66.43
2019-05-19T17:42:46.753Z,67.59
2019-05-19T17:45:16.907Z,67.63
2019-05-19T17:47:46.354Z,68.11
2019-05-19T17:50:32.675Z,70.40
2019-05-19T17:53:02.556Z,71.34
2019-05-19T17:55:36.111Z,67.83
2019-05-19T17:58:06.408Z,69.05
2019-05-19T18:00:41.309Z,70.25
2019-05-19T18:03:11.317Z,71.61
2019-05-19T18:05:40.784Z,71.06
2019-05-19T18:08:10.235Z,71.14
2019-05-19T18:10:39.765Z,71.16
2019-05-19T18:13:09.223Z,71.80
2019-05-19T18:15:38.667Z,71.23
2019-05-19T18:18:08.381Z,71.06
2019-05-19T18:20:37.978Z,71.00
2019-05-19T18:23:07.424Z,70.51
2019-05-19T18:25:36.950Z,70.39
2019-05-19T18:28:06.412Z,70.35
2019-05-19T18:30:35.861Z,70.82
2019-05-19T18:33:05.548Z,71.40
2019-05-19T18:35:35.006Z,71.52
2019-05-19T18:38:04.532Z,71.17
2019-05-19T18:40:33.983Z,70.75
2019-05-19T18:43:03.460Z,71.93
2019-05-19T18:45:32.949Z,70.61
2019-05-19T18:48:02.602Z,72.21
2019-05-19T18:50:32.053Z,72.96
2019-05-19T18:53:01.523Z,72.51
2019-05-19T18:55:30.963Z,72.16
2019-05-19T18:58:00.447Z,71.79
2019-05-19T19:00:40.000Z,72.63
2019-05-19T19:03:09.541Z,72.29
2019-05-19T19:05:39.001Z,72.63
2019-05-19T19:08:08.450Z,72.61
2019-05-19T19:10:37.934Z,72.89
2019-05-19T19:13:07.582Z,72.79
2019-05-19T19:15:37.032Z,72.41
2019-05-19T19:18:06.496Z,72.09
2019-05-19T19:20:36.134Z,73.12
2019-05-19T19:23:05.910Z,73.16
2019-05-19T19:25:35.415Z,73.21
2019-05-19T19:28:04.948Z,72.99
2019-05-19T19:30:34.405Z,73.49
2019-05-19T19:33:03.916Z,73.78
2019-05-19T19:35:39.368Z,75.58
2019-05-19T19:38:04.581Z,76.63
2019-05-19T19:40:34.326Z,75.86
2019-05-19T19:43:03.973Z,75.75
2019-05-19T19:45:33.420Z,75.65
2019-05-19T19:48:02.884Z,75.44
2019-05-19T19:50:32.352Z,75.73
2019-05-19T19:53:04.536Z,75.80
2019-05-19T19:55:34.004Z,75.97
2019-05-19T19:58:03.478Z,75.90
2019-05-19T20:00:39.784Z,75.75
2019-05-19T20:03:09.567Z,75.53
2019-05-19T20:05:39.711Z,75.37
2019-05-19T20:08:09.558Z,75.12
2019-05-19T20:10:39.088Z,74.86
2019-05-19T20:13:08.635Z,74.75
2019-05-19T20:15:38.369Z,74.87
2019-05-19T20:18:07.950Z,75.37
2019-05-19T20:20:37.433Z,75.15
2019-05-19T20:23:06.895Z,74.84
2019-05-19T20:25:37.280Z,74.80
2019-05-19T20:28:07.042Z,75.05
2019-05-19T20:30:36.937Z,75.28
2019-05-19T20:33:06.645Z,76.51
2019-05-19T20:35:36.199Z,77.14
2019-05-19T20:38:05.790Z,76.77
2019-05-19T20:40:35.446Z,76.24
2019-05-19T20:43:04.992Z,75.83
2019-05-19T20:45:34.954Z,76.04
2019-05-19T20:48:04.412Z,76.05
2019-05-19T20:50:33.875Z,76.07
2019-05-19T20:53:03.329Z,76.14
2019-05-19T20:55:32.777Z,76.04
2019-05-19T20:58:02.244Z,76.08
2019-05-19T21:00:31.787Z,76.53
2019-05-19T21:03:01.306Z,76.82
2019-05-19T21:05:30.770Z,77.47
2019-05-19T21:08:00.239Z,76.87
2019-05-19T21:10:29.690Z,76.62
2019-05-19T21:12:59.136Z,76.26
2019-05-19T21:15:28.602Z,75.82
2019-05-19T21:17:58.044Z,75.76
2019-05-19T21:20:27.560Z,76.37
2019-05-19T21:22:57.035Z,77.08
2019-05-19T21:25:26.473Z,77.23
2019-05-19T21:27:55.926Z,78.40
2019-05-19T21:30:25.398Z,77.69
2019-05-19T21:32:54.837Z,76.68
2019-05-19T21:35:24.287Z,76.60
2019-05-19T21:37:53.756Z,76.39
2019-05-19T21:40:23.217Z,76.33
2019-05-19T21:42:52.684Z,76.02
2019-05-19T21:45:22.151Z,75.83
2019-05-19T21:47:51.605Z,75.32
2019-05-19T21:50:21.099Z,75.14
2019-05-19T21:52:50.516Z,75.16
2019-05-19T21:55:19.967Z,74.85
2019-05-19T21:57:49.521Z,74.96
2019-05-19T22:00:20.979Z,75.86
2019-05-19T22:02:50.447Z,76.22
2019-05-19T22:05:19.901Z,76.52
2019-05-19T22:07:57.077Z,78.07
2019-05-19T22:10:26.520Z,78.34
2019-05-19T22:12:56.093Z,77.80
2019-05-19T22:15:25.681Z,77.09
2019-05-19T22:17:55.129Z,76.75
2019-05-19T22:20:24.607Z,75.97
2019-05-19T22:22:54.052Z,75.88
2019-05-19T22:25:23.499Z,77.04
2019-05-19T22:27:52.973Z,77.92
2019-05-19T22:30:22.557Z,78.08
2019-05-19T22:32:52.023Z,77.75
2019-05-19T22:35:21.545Z,77.45
2019-05-19T22:37:51.029Z,76.91
2019-05-19T22:40:20.633Z,76.52
2019-05-19T22:42:50.077Z,76.22
2019-05-19T22:45:19.546Z,76.63
2019-05-19T22:47:48.993Z,77.55
2019-05-19T22:50:18.661Z,77.85
2019-05-19T22:52:48.179Z,77.65
2019-05-19T22:55:17.692Z,77.41
2019-05-19T22:57:47.143Z,76.97
2019-05-19T23:00:17.916Z,76.85
2019-05-19T23:02:47.447Z,77.82
2019-05-19T23:05:17.207Z,77.17
2019-05-19T23:07:46.655Z,76.81
2019-05-19T23:10:16.632Z,76.79
2019-05-19T23:12:46.078Z,76.84
2019-05-19T23:15:16.132Z,76.64
2019-05-19T23:17:45.622Z,76.15
2019-05-19T23:20:16.021Z,75.51
2019-05-19T23:22:45.488Z,75.30
2019-05-19T23:25:15.004Z,75.64
2019-05-19T23:27:44.471Z,75.59
2019-05-19T23:30:14.057Z,75.42
2019-05-19T23:32:43.504Z,75.88
2019-05-19T23:35:13.209Z,76.14
2019-05-19T23:37:42.656Z,76.99
2019-05-19T23:40:12.332Z,76.66
2019-05-19T23:42:41.851Z,76.45
2019-05-19T23:45:11.569Z,76.24
2019-05-19T23:47:41.012Z,76.03
2019-05-19T23:50:10.911Z,75.83
2019-05-19T23:52:40.362Z,76.03
2019-05-19T23:55:10.183Z,76.01
2019-05-19T23:57:39.631Z,76.28
